Terminal Aerodrome Forecast
Issued by NWS

Home | Current Version | Previous Version | Text Only | Print | Product List | Glossary Off
Versions: 1 2 3 4 5 6 7 8 9 10 11 12 13 14 15

000
FTUS43 KGRB 241740
TAFRHI
TAF
KRHI 241740Z 2418/2518 36005KT P6SM SCT050 BKN120
     FM242000 35010G16KT P6SM VCSH BKN060
     FM250120 01005KT P6SM SKC=

USA.gov is the U.S. government's official web portal to all federal, state and local government web resources and services.